sensor_id;sensor_type;location;lat;lon;timestamp;P1;durP1;ratioP1;P2;durP2;ratioP2
63379;SDS011;53160;55.014;73.156;2023-05-16T00:04:46;85.40;;;70.60;;
63379;SDS011;53160;55.014;73.156;2023-05-16T00:07:12;85.80;;;69.40;;
63379;SDS011;53160;55.014;73.156;2023-05-16T00:09:39;84.60;;;68.00;;
63379;SDS011;53160;55.014;73.156;2023-05-16T00:12:05;91.00;;;82.20;;
63379;SDS011;53160;55.014;73.156;2023-05-16T00:14:31;86.60;;;73.80;;
63379;SDS011;53160;55.014;73.156;2023-05-16T00:16:57;90.60;;;76.20;;
63379;SDS011;53160;55.014;73.156;2023-05-16T00:19:23;88.60;;;79.00;;
63379;SDS011;53160;55.014;73.156;2023-05-16T00:21:51;88.00;;;78.20;;
63379;SDS011;53160;55.014;73.156;2023-05-16T00:24:20;83.60;;;69.60;;
63379;SDS011;53160;55.014;73.156;2023-05-16T00:27:05;91.00;;;80.60;;
63379;SDS011;53160;55.014;73.156;2023-05-16T00:32:19;93.20;;;82.60;;
63379;SDS011;53160;55.014;73.156;2023-05-16T00:34:45;96.00;;;85.67;;
63379;SDS011;53160;55.014;73.156;2023-05-16T00:37:12;101.00;;;90.00;;
63379;SDS011;53160;55.014;73.156;2023-05-16T00:39:38;102.67;;;93.33;;
63379;SDS011;53160;55.014;73.156;2023-05-16T00:42:04;95.75;;;95.00;;
63379;SDS011;53160;55.014;73.156;2023-05-16T00:44:31;100.75;;;98.50;;
63379;SDS011;53160;55.014;73.156;2023-05-16T00:46:57;102.00;;;100.75;;
63379;SDS011;53160;55.014;73.156;2023-05-16T00:49:25;93.75;;;86.50;;
63379;SDS011;53160;55.014;73.156;2023-05-16T00:51:51;105.50;;;100.75;;
63379;SDS011;53160;55.014;73.156;2023-05-16T00:54:19;104.00;;;99.00;;
63379;SDS011;53160;55.014;73.156;2023-05-16T00:56:47;111.00;;;105.50;;
63379;SDS011;53160;55.014;73.156;2023-05-16T01:02:18;108.25;;;103.25;;
63379;SDS011;53160;55.014;73.156;2023-05-16T01:04:44;116.25;;;111.00;;
63379;SDS011;53160;55.014;73.156;2023-05-16T01:07:11;123.50;;;117.50;;
63379;SDS011;53160;55.014;73.156;2023-05-16T01:09:37;112.33;;;104.67;;
63379;SDS011;53160;55.014;73.156;2023-05-16T01:17:12;116.75;;;110.75;;
63379;SDS011;53160;55.014;73.156;2023-05-16T01:27:47;108.00;;;104.00;;
63379;SDS011;53160;55.014;73.156;2023-05-16T01:30:33;106.50;;;99.75;;
63379;SDS011;53160;55.014;73.156;2023-05-16T01:33:17;108.50;;;103.75;;
63379;SDS011;53160;55.014;73.156;2023-05-16T01:35:57;106.00;;;101.67;;
63379;SDS011;53160;55.014;73.156;2023-05-16T01:38:51;107.25;;;101.00;;
63379;SDS011;53160;55.014;73.156;2023-05-16T01:41:23;100.75;;;96.25;;
63379;SDS011;53160;55.014;73.156;2023-05-16T01:46:58;92.25;;;87.00;;
63379;SDS011;53160;55.014;73.156;2023-05-16T01:49:33;87.25;;;82.50;;
63379;SDS011;53160;55.014;73.156;2023-05-16T01:52:01;88.60;;;83.40;;
63379;SDS011;53160;55.014;73.156;2023-05-16T01:54:37;85.40;;;76.80;;
63379;SDS011;53160;55.014;73.156;2023-05-16T01:57:04;81.60;;;70.40;;
63379;SDS011;53160;55.014;73.156;2023-05-16T01:59:35;86.20;;;76.80;;
63379;SDS011;53160;55.014;73.156;2023-05-16T02:02:03;83.60;;;76.20;;
63379;SDS011;53160;55.014;73.156;2023-05-16T02:04:29;82.60;;;73.00;;
63379;SDS011;53160;55.014;73.156;2023-05-16T02:06:55;80.50;;;70.00;;
63379;SDS011;53160;55.014;73.156;2023-05-16T02:09:21;80.40;;;69.20;;
63379;SDS011;53160;55.014;73.156;2023-05-16T02:11:47;75.40;;;62.60;;
63379;SDS011;53160;55.014;73.156;2023-05-16T02:14:13;80.20;;;68.00;;
63379;SDS011;53160;55.014;73.156;2023-05-16T02:16:40;78.80;;;69.60;;
63379;SDS011;53160;55.014;73.156;2023-05-16T02:19:06;78.60;;;67.00;;
63379;SDS011;53160;55.014;73.156;2023-05-16T02:21:50;80.60;;;71.60;;
63379;SDS011;53160;55.014;73.156;2023-05-16T02:24:16;75.00;;;62.40;;
63379;SDS011;53160;55.014;73.156;2023-05-16T02:26:42;80.40;;;69.80;;
63379;SDS011;53160;55.014;73.156;2023-05-16T02:29:09;77.80;;;66.40;;
63379;SDS011;53160;55.014;73.156;2023-05-16T02:31:53;77.80;;;68.40;;
63379;SDS011;53160;55.014;73.156;2023-05-16T02:34:19;69.40;;;56.60;;
63379;SDS011;53160;55.014;73.156;2023-05-16T02:36:45;70.40;;;54.40;;
63379;SDS011;53160;55.014;73.156;2023-05-16T02:39:13;74.00;;;60.60;;
63379;SDS011;53160;55.014;73.156;2023-05-16T02:41:40;76.60;;;64.80;;
63379;SDS011;53160;55.014;73.156;2023-05-16T02:44:07;63.80;;;52.40;;
63379;SDS011;53160;55.014;73.156;2023-05-16T02:46:33;68.80;;;55.40;;
63379;SDS011;53160;55.014;73.156;2023-05-16T02:48:59;62.80;;;51.80;;
63379;SDS011;53160;55.014;73.156;2023-05-16T02:51:27;60.60;;;49.60;;
63379;SDS011;53160;55.014;73.156;2023-05-16T02:54:11;64.40;;;53.00;;
63379;SDS011;53160;55.014;73.156;2023-05-16T02:56:37;65.75;;;52.75;;
63379;SDS011;53160;55.014;73.156;2023-05-16T02:59:22;65.20;;;52.60;;
63379;SDS011;53160;55.014;73.156;2023-05-16T03:01:48;67.00;;;54.00;;
63379;SDS011;53160;55.014;73.156;2023-05-16T03:04:32;61.20;;;50.60;;
63379;SDS011;53160;55.014;73.156;2023-05-16T03:07:17;56.40;;;47.00;;
63379;SDS011;53160;55.014;73.156;2023-05-16T03:09:47;53.60;;;44.40;;
63379;SDS011;53160;55.014;73.156;2023-05-16T03:14:58;50.00;;;42.40;;
63379;SDS011;53160;55.014;73.156;2023-05-16T03:17:24;49.60;;;41.00;;
63379;SDS011;53160;55.014;73.156;2023-05-16T03:19:51;46.00;;;39.80;;
63379;SDS011;53160;55.014;73.156;2023-05-16T03:22:35;37.20;;;34.40;;
63379;SDS011;53160;55.014;73.156;2023-05-16T03:27:46;28.40;;;28.00;;
63379;SDS011;53160;55.014;73.156;2023-05-16T03:30:12;23.80;;;23.40;;
63379;SDS011;53160;55.014;73.156;2023-05-16T03:35:47;25.00;;;24.00;;
63379;SDS011;53160;55.014;73.156;2023-05-16T03:40:57;27.60;;;27.60;;
63379;SDS011;53160;55.014;73.156;2023-05-16T03:43:24;27.20;;;26.40;;
63379;SDS011;53160;55.014;73.156;2023-05-16T03:45:50;14.80;;;14.20;;
63379;SDS011;53160;55.014;73.156;2023-05-16T03:48:16;14.60;;;13.60;;
63379;SDS011;53160;55.014;73.156;2023-05-16T03:50:42;10.00;;;9.00;;
63379;SDS011;53160;55.014;73.156;2023-05-16T03:53:08;11.50;;;10.50;;
63379;SDS011;53160;55.014;73.156;2023-05-16T03:55:34;11.00;;;11.00;;
63379;SDS011;53160;55.014;73.156;2023-05-16T03:58:00;12.00;;;11.00;;
63379;SDS011;53160;55.014;73.156;2023-05-16T04:00:26;11.00;;;10.25;;
63379;SDS011;53160;55.014;73.156;2023-05-16T04:02:52;12.25;;;12.25;;
63379;SDS011;53160;55.014;73.156;2023-05-16T04:05:18;13.00;;;13.00;;
63379;SDS011;53160;55.014;73.156;2023-05-16T04:07:44;15.67;;;14.67;;
63379;SDS011;53160;55.014;73.156;2023-05-16T04:10:29;12.25;;;11.75;;
63379;SDS011;53160;55.014;73.156;2023-05-16T04:12:56;12.25;;;12.00;;
63379;SDS011;53160;55.014;73.156;2023-05-16T04:15:22;15.00;;;14.50;;
63379;SDS011;53160;55.014;73.156;2023-05-16T04:17:49;13.75;;;13.00;;
63379;SDS011;53160;55.014;73.156;2023-05-16T04:20:15;14.40;;;14.00;;
63379;SDS011;53160;55.014;73.156;2023-05-16T04:25:26;12.00;;;12.00;;
63379;SDS011;53160;55.014;73.156;2023-05-16T04:27:52;13.50;;;12.50;;
63379;SDS011;53160;55.014;73.156;2023-05-16T04:30:18;13.75;;;13.50;;
63379;SDS011;53160;55.014;73.156;2023-05-16T04:32:44;14.67;;;13.33;;
63379;SDS011;53160;55.014;73.156;2023-05-16T04:35:10;12.50;;;12.50;;
63379;SDS011;53160;55.014;73.156;2023-05-16T04:37:36;10.75;;;10.75;;
63379;SDS011;53160;55.014;73.156;2023-05-16T04:40:02;11.00;;;10.00;;
63379;SDS011;53160;55.014;73.156;2023-05-16T04:42:50;13.75;;;13.25;;
63379;SDS011;53160;55.014;73.156;2023-05-16T04:45:35;13.75;;;13.25;;
63379;SDS011;53160;55.014;73.156;2023-05-16T04:48:03;11.25;;;10.25;;
63379;SDS011;53160;55.014;73.156;2023-05-16T04:50:30;13.00;;;12.40;;
63379;SDS011;53160;55.014;73.156;2023-05-16T04:52:56;8.25;;;8.25;;
63379;SDS011;53160;55.014;73.156;2023-05-16T04:55:22;11.25;;;10.50;;
63379;SDS011;53160;55.014;73.156;2023-05-16T04:57:48;40.40;;;34.60;;
63379;SDS011;53160;55.014;73.156;2023-05-16T05:00:14;9.67;;;9.00;;
63379;SDS011;53160;55.014;73.156;2023-05-16T05:02:41;9.75;;;9.75;;
63379;SDS011;53160;55.014;73.156;2023-05-16T05:05:08;12.33;;;11.33;;
63379;SDS011;53160;55.014;73.156;2023-05-16T05:07:34;11.00;;;10.25;;
63379;SDS011;53160;55.014;73.156;2023-05-16T05:10:18;12.40;;;12.20;;
63379;SDS011;53160;55.014;73.156;2023-05-16T05:12:45;11.00;;;10.50;;
63379;SDS011;53160;55.014;73.156;2023-05-16T05:18:16;5.50;;;5.25;;
63379;SDS011;53160;55.014;73.156;2023-05-16T05:20:43;8.00;;;8.00;;
63379;SDS011;53160;55.014;73.156;2023-05-16T05:23:46;10.00;;;8.75;;
63379;SDS011;53160;55.014;73.156;2023-05-16T05:26:31;9.00;;;8.25;;
63379;SDS011;53160;55.014;73.156;2023-05-16T05:28:57;9.50;;;8.25;;
63379;SDS011;53160;55.014;73.156;2023-05-16T05:31:24;8.00;;;8.00;;
63379;SDS011;53160;55.014;73.156;2023-05-16T05:33:50;9.33;;;8.00;;
63379;SDS011;53160;55.014;73.156;2023-05-16T05:36:16;12.75;;;10.00;;
63379;SDS011;53160;55.014;73.156;2023-05-16T05:38:42;9.25;;;9.00;;
63379;SDS011;53160;55.014;73.156;2023-05-16T05:41:08;10.00;;;9.25;;
63379;SDS011;53160;55.014;73.156;2023-05-16T05:46:24;11.50;;;10.50;;
63379;SDS011;53160;55.014;73.156;2023-05-16T05:48:50;14.00;;;12.75;;
63379;SDS011;53160;55.014;73.156;2023-05-16T05:51:16;9.75;;;8.50;;
63379;SDS011;53160;55.014;73.156;2023-05-16T05:53:43;10.00;;;9.50;;
63379;SDS011;53160;55.014;73.156;2023-05-16T05:56:10;5.75;;;5.00;;
63379;SDS011;53160;55.014;73.156;2023-05-16T05:58:36;10.75;;;10.50;;
63379;SDS011;53160;55.014;73.156;2023-05-16T06:01:02;9.33;;;9.33;;
63379;SDS011;53160;55.014;73.156;2023-05-16T06:03:28;9.00;;;9.00;;
63379;SDS011;53160;55.014;73.156;2023-05-16T06:05:53;6.33;;;6.33;;
63379;SDS011;53160;55.014;73.156;2023-05-16T06:08:38;42.60;;;36.80;;
63379;SDS011;53160;55.014;73.156;2023-05-16T06:11:04;7.00;;;6.50;;
63379;SDS011;53160;55.014;73.156;2023-05-16T06:13:30;5.25;;;5.00;;
63379;SDS011;53160;55.014;73.156;2023-05-16T06:15:56;7.00;;;5.33;;
63379;SDS011;53160;55.014;73.156;2023-05-16T06:18:22;5.00;;;5.00;;
63379;SDS011;53160;55.014;73.156;2023-05-16T06:21:07;7.00;;;6.50;;
63379;SDS011;53160;55.014;73.156;2023-05-16T06:23:33;3.75;;;3.50;;
63379;SDS011;53160;55.014;73.156;2023-05-16T06:29:03;4.25;;;4.00;;
63379;SDS011;53160;55.014;73.156;2023-05-16T06:31:29;4.00;;;3.50;;
63379;SDS011;53160;55.014;73.156;2023-05-16T06:33:56;5.50;;;4.50;;
63379;SDS011;53160;55.014;73.156;2023-05-16T06:36:41;4.25;;;4.25;;
63379;SDS011;53160;55.014;73.156;2023-05-16T06:42:10;3.00;;;3.00;;
63379;SDS011;53160;55.014;73.156;2023-05-16T06:44:37;2.75;;;2.75;;
63379;SDS011;53160;55.014;73.156;2023-05-16T06:47:03;4.00;;;3.67;;
63379;SDS011;53160;55.014;73.156;2023-05-16T06:52:14;4.50;;;4.50;;
63379;SDS011;53160;55.014;73.156;2023-05-16T06:54:40;4.75;;;4.00;;
63379;SDS011;53160;55.014;73.156;2023-05-16T06:57:24;3.75;;;3.50;;
63379;SDS011;53160;55.014;73.156;2023-05-16T07:00:09;4.50;;;4.50;;
63379;SDS011;53160;55.014;73.156;2023-05-16T07:02:54;9.00;;;8.75;;
63379;SDS011;53160;55.014;73.156;2023-05-16T07:05:26;2.75;;;2.75;;
63379;SDS011;53160;55.014;73.156;2023-05-16T07:07:52;4.00;;;4.00;;
63379;SDS011;53160;55.014;73.156;2023-05-16T07:10:39;4.00;;;4.00;;
63379;SDS011;53160;55.014;73.156;2023-05-16T07:13:05;4.25;;;4.00;;
63379;SDS011;53160;55.014;73.156;2023-05-16T07:15:32;2.25;;;1.75;;
63379;SDS011;53160;55.014;73.156;2023-05-16T07:17:58;2.25;;;2.00;;
63379;SDS011;53160;55.014;73.156;2023-05-16T07:20:24;2.50;;;2.50;;
63379;SDS011;53160;55.014;73.156;2023-05-16T07:22:50;4.75;;;4.00;;
63379;SDS011;53160;55.014;73.156;2023-05-16T07:25:16;2.00;;;1.33;;
63379;SDS011;53160;55.014;73.156;2023-05-16T07:28:19;3.00;;;3.00;;
63379;SDS011;53160;55.014;73.156;2023-05-16T07:30:46;2.00;;;2.00;;
63379;SDS011;53160;55.014;73.156;2023-05-16T07:33:12;3.00;;;2.00;;
63379;SDS011;53160;55.014;73.156;2023-05-16T07:35:38;3.00;;;3.00;;
63379;SDS011;53160;55.014;73.156;2023-05-16T07:38:06;4.25;;;4.25;;
63379;SDS011;53160;55.014;73.156;2023-05-16T07:43:17;2.75;;;2.25;;
63379;SDS011;53160;55.014;73.156;2023-05-16T07:45:43;2.75;;;2.75;;
63379;SDS011;53160;55.014;73.156;2023-05-16T07:48:09;2.25;;;2.25;;
63379;SDS011;53160;55.014;73.156;2023-05-16T07:50:35;4.00;;;3.50;;
63379;SDS011;53160;55.014;73.156;2023-05-16T07:53:02;4.00;;;4.00;;
63379;SDS011;53160;55.014;73.156;2023-05-16T07:55:32;2.25;;;1.75;;
63379;SDS011;53160;55.014;73.156;2023-05-16T07:57:58;0.50;;;0.50;;
63379;SDS011;53160;55.014;73.156;2023-05-16T08:00:24;3.67;;;3.67;;
63379;SDS011;53160;55.014;73.156;2023-05-16T08:02:50;4.00;;;3.33;;
63379;SDS011;53160;55.014;73.156;2023-05-16T08:08:01;4.75;;;4.25;;
63379;SDS011;53160;55.014;73.156;2023-05-16T08:10:27;5.00;;;5.00;;
63379;SDS011;53160;55.014;73.156;2023-05-16T08:12:53;6.00;;;6.00;;
63379;SDS011;53160;55.014;73.156;2023-05-16T08:15:19;6.25;;;6.25;;
63379;SDS011;53160;55.014;73.156;2023-05-16T08:17:46;5.25;;;5.25;;
63379;SDS011;53160;55.014;73.156;2023-05-16T08:20:12;11.25;;;8.00;;
63379;SDS011;53160;55.014;73.156;2023-05-16T08:22:41;8.25;;;6.00;;
63379;SDS011;53160;55.014;73.156;2023-05-16T08:25:25;7.75;;;7.50;;
63379;SDS011;53160;55.014;73.156;2023-05-16T08:27:51;8.00;;;7.00;;
63379;SDS011;53160;55.014;73.156;2023-05-16T08:33:04;3.75;;;3.75;;
63379;SDS011;53160;55.014;73.156;2023-05-16T08:35:31;9.00;;;8.25;;
63379;SDS011;53160;55.014;73.156;2023-05-16T08:38:16;9.75;;;9.75;;
63379;SDS011;53160;55.014;73.156;2023-05-16T08:40:42;8.25;;;8.00;;
63379;SDS011;53160;55.014;73.156;2023-05-16T08:43:11;7.75;;;7.75;;
63379;SDS011;53160;55.014;73.156;2023-05-16T08:45:37;7.25;;;7.00;;
63379;SDS011;53160;55.014;73.156;2023-05-16T08:48:07;9.25;;;7.50;;
63379;SDS011;53160;55.014;73.156;2023-05-16T08:50:34;7.75;;;7.00;;
63379;SDS011;53160;55.014;73.156;2023-05-16T08:53:03;7.00;;;5.00;;
63379;SDS011;53160;55.014;73.156;2023-05-16T08:55:31;9.25;;;8.75;;
63379;SDS011;53160;55.014;73.156;2023-05-16T08:57:58;9.25;;;7.25;;
63379;SDS011;53160;55.014;73.156;2023-05-16T09:00:26;3.00;;;2.75;;
63379;SDS011;53160;55.014;73.156;2023-05-16T09:02:52;5.25;;;5.00;;
63379;SDS011;53160;55.014;73.156;2023-05-16T09:05:21;5.50;;;5.50;;
63379;SDS011;53160;55.014;73.156;2023-05-16T09:07:47;5.00;;;5.00;;
63379;SDS011;53160;55.014;73.156;2023-05-16T09:10:13;4.75;;;4.75;;
63379;SDS011;53160;55.014;73.156;2023-05-16T09:12:41;5.50;;;4.75;;
63379;SDS011;53160;55.014;73.156;2023-05-16T09:15:08;10.75;;;8.00;;
63379;SDS011;53160;55.014;73.156;2023-05-16T09:17:39;2.00;;;2.00;;
63379;SDS011;53160;55.014;73.156;2023-05-16T09:20:09;3.00;;;3.00;;
63379;SDS011;53160;55.014;73.156;2023-05-16T09:22:36;2.75;;;2.75;;
63379;SDS011;53160;55.014;73.156;2023-05-16T09:25:02;3.00;;;2.25;;
63379;SDS011;53160;55.014;73.156;2023-05-16T09:27:29;2.25;;;2.00;;
63379;SDS011;53160;55.014;73.156;2023-05-16T09:29:56;3.00;;;2.00;;
63379;SDS011;53160;55.014;73.156;2023-05-16T09:32:23;2.50;;;2.50;;
63379;SDS011;53160;55.014;73.156;2023-05-16T09:34:51;2.00;;;2.00;;
63379;SDS011;53160;55.014;73.156;2023-05-16T09:37:22;2.25;;;2.25;;
63379;SDS011;53160;55.014;73.156;2023-05-16T09:39:52;2.25;;;2.00;;
63379;SDS011;53160;55.014;73.156;2023-05-16T09:42:19;0.00;;;0.00;;
63379;SDS011;53160;55.014;73.156;2023-05-16T09:44:49;0.00;;;0.00;;
63379;SDS011;53160;55.014;73.156;2023-05-16T09:47:19;0.00;;;0.00;;
63379;SDS011;53160;55.014;73.156;2023-05-16T09:49:51;1.50;;;1.50;;
63379;SDS011;53160;55.014;73.156;2023-05-16T09:52:18;1.00;;;1.00;;
63379;SDS011;53160;55.014;73.156;2023-05-16T09:54:45;2.00;;;1.00;;
63379;SDS011;53160;55.014;73.156;2023-05-16T09:57:11;0.25;;;0.25;;
63379;SDS011;53160;55.014;73.156;2023-05-16T09:59:37;3.50;;;2.50;;
63379;SDS011;53160;55.014;73.156;2023-05-16T10:02:04;2.50;;;2.00;;
63379;SDS011;53160;55.014;73.156;2023-05-16T10:04:33;0.50;;;0.50;;
63379;SDS011;53160;55.014;73.156;2023-05-16T10:07:03;1.25;;;1.25;;
63379;SDS011;53160;55.014;73.156;2023-05-16T10:09:32;0.00;;;0.00;;
63379;SDS011;53160;55.014;73.156;2023-05-16T10:12:02;2.00;;;2.00;;
63379;SDS011;53160;55.014;73.156;2023-05-16T10:14:33;2.75;;;2.00;;
63379;SDS011;53160;55.014;73.156;2023-05-16T10:16:59;7.00;;;6.50;;
63379;SDS011;53160;55.014;73.156;2023-05-16T10:19:26;1.00;;;1.00;;
63379;SDS011;53160;55.014;73.156;2023-05-16T10:21:57;1.75;;;1.25;;
63379;SDS011;53160;55.014;73.156;2023-05-16T10:24:30;2.50;;;2.50;;
63379;SDS011;53160;55.014;73.156;2023-05-16T10:27:01;2.00;;;1.75;;
63379;SDS011;53160;55.014;73.156;2023-05-16T10:29:31;3.50;;;3.00;;
63379;SDS011;53160;55.014;73.156;2023-05-16T10:31:58;2.00;;;2.00;;
63379;SDS011;53160;55.014;73.156;2023-05-16T10:34:24;4.00;;;1.25;;
63379;SDS011;53160;55.014;73.156;2023-05-16T10:36:51;2.25;;;2.25;;
63379;SDS011;53160;55.014;73.156;2023-05-16T10:39:18;3.50;;;2.75;;
63379;SDS011;53160;55.014;73.156;2023-05-16T10:41:44;3.00;;;3.00;;
63379;SDS011;53160;55.014;73.156;2023-05-16T10:44:13;2.75;;;2.00;;
63379;SDS011;53160;55.014;73.156;2023-05-16T10:46:42;4.00;;;3.50;;
63379;SDS011;53160;55.014;73.156;2023-05-16T10:49:19;3.25;;;3.25;;
63379;SDS011;53160;55.014;73.156;2023-05-16T10:51:48;2.00;;;1.00;;
63379;SDS011;53160;55.014;73.156;2023-05-16T10:54:32;4.00;;;4.00;;
63379;SDS011;53160;55.014;73.156;2023-05-16T10:57:24;1.50;;;1.50;;
63379;SDS011;53160;55.014;73.156;2023-05-16T10:59:50;3.00;;;3.00;;
63379;SDS011;53160;55.014;73.156;2023-05-16T11:02:20;4.00;;;4.00;;
63379;SDS011;53160;55.014;73.156;2023-05-16T11:04:50;5.75;;;5.25;;
63379;SDS011;53160;55.014;73.156;2023-05-16T11:07:17;3.50;;;3.50;;
63379;SDS011;53160;55.014;73.156;2023-05-16T11:09:43;10.00;;;9.40;;
63379;SDS011;53160;55.014;73.156;2023-05-16T11:12:10;10.25;;;9.75;;
63379;SDS011;53160;55.014;73.156;2023-05-16T11:14:39;6.75;;;6.75;;
63379;SDS011;53160;55.014;73.156;2023-05-16T11:17:10;7.50;;;7.25;;
63379;SDS011;53160;55.014;73.156;2023-05-16T11:22:23;8.00;;;8.00;;
63379;SDS011;53160;55.014;73.156;2023-05-16T11:27:26;8.75;;;7.50;;
63379;SDS011;53160;55.014;73.156;2023-05-16T11:29:53;6.50;;;5.75;;
63379;SDS011;53160;55.014;73.156;2023-05-16T11:32:22;7.00;;;6.25;;
63379;SDS011;53160;55.014;73.156;2023-05-16T11:34:51;7.75;;;7.75;;
63379;SDS011;53160;55.014;73.156;2023-05-16T11:37:32;8.25;;;7.75;;
63379;SDS011;53160;55.014;73.156;2023-05-16T11:39:59;7.25;;;6.25;;
63379;SDS011;53160;55.014;73.156;2023-05-16T11:42:28;8.00;;;8.00;;
63379;SDS011;53160;55.014;73.156;2023-05-16T11:45:05;7.00;;;7.00;;
63379;SDS011;53160;55.014;73.156;2023-05-16T11:47:32;5.50;;;5.50;;
63379;SDS011;53160;55.014;73.156;2023-05-16T11:49:58;4.00;;;4.00;;
63379;SDS011;53160;55.014;73.156;2023-05-16T11:52:24;8.40;;;7.00;;
63379;SDS011;53160;55.014;73.156;2023-05-16T11:54:50;5.50;;;5.50;;
63379;SDS011;53160;55.014;73.156;2023-05-16T11:57:20;7.00;;;6.50;;
63379;SDS011;53160;55.014;73.156;2023-05-16T11:59:48;8.00;;;8.00;;
63379;SDS011;53160;55.014;73.156;2023-05-16T12:02:14;6.00;;;5.75;;
63379;SDS011;53160;55.014;73.156;2023-05-16T12:04:40;6.75;;;6.75;;
63379;SDS011;53160;55.014;73.156;2023-05-16T12:07:14;12.40;;;11.80;;
63379;SDS011;53160;55.014;73.156;2023-05-16T12:09:40;31.20;;;29.40;;
63379;SDS011;53160;55.014;73.156;2023-05-16T12:12:06;15.40;;;13.40;;
63379;SDS011;53160;55.014;73.156;2023-05-16T12:14:32;20.60;;;19.00;;
63379;SDS011;53160;55.014;73.156;2023-05-16T12:17:11;14.20;;;14.00;;
63379;SDS011;53160;55.014;73.156;2023-05-16T12:19:37;16.40;;;15.20;;
63379;SDS011;53160;55.014;73.156;2023-05-16T12:22:03;16.60;;;16.20;;
63379;SDS011;53160;55.014;73.156;2023-05-16T12:24:29;15.60;;;15.60;;
63379;SDS011;53160;55.014;73.156;2023-05-16T12:26:56;13.60;;;13.40;;
63379;SDS011;53160;55.014;73.156;2023-05-16T12:29:27;14.00;;;13.40;;
63379;SDS011;53160;55.014;73.156;2023-05-16T12:31:53;9.50;;;9.00;;
63379;SDS011;53160;55.014;73.156;2023-05-16T12:34:20;12.00;;;12.00;;
63379;SDS011;53160;55.014;73.156;2023-05-16T12:36:51;11.00;;;10.75;;
63379;SDS011;53160;55.014;73.156;2023-05-16T12:39:18;8.80;;;7.40;;
63379;SDS011;53160;55.014;73.156;2023-05-16T12:41:45;29.40;;;28.40;;
63379;SDS011;53160;55.014;73.156;2023-05-16T12:44:12;38.20;;;32.40;;
63379;SDS011;53160;55.014;73.156;2023-05-16T12:46:44;35.00;;;32.20;;
63379;SDS011;53160;55.014;73.156;2023-05-16T12:49:11;30.80;;;29.40;;
63379;SDS011;53160;55.014;73.156;2023-05-16T12:51:38;37.60;;;34.00;;
63379;SDS011;53160;55.014;73.156;2023-05-16T12:54:08;40.40;;;35.40;;
63379;SDS011;53160;55.014;73.156;2023-05-16T12:56:40;40.80;;;35.40;;
63379;SDS011;53160;55.014;73.156;2023-05-16T12:59:06;43.80;;;38.00;;
63379;SDS011;53160;55.014;73.156;2023-05-16T13:01:33;43.20;;;37.00;;
63379;SDS011;53160;55.014;73.156;2023-05-16T13:03:59;44.20;;;38.00;;
63379;SDS011;53160;55.014;73.156;2023-05-16T13:06:25;49.00;;;41.40;;
63379;SDS011;53160;55.014;73.156;2023-05-16T13:08:53;50.40;;;42.40;;
63379;SDS011;53160;55.014;73.156;2023-05-16T13:11:19;53.00;;;44.20;;
63379;SDS011;53160;55.014;73.156;2023-05-16T13:13:45;49.40;;;41.40;;
63379;SDS011;53160;55.014;73.156;2023-05-16T13:16:11;51.00;;;42.25;;
63379;SDS011;53160;55.014;73.156;2023-05-16T13:18:37;52.40;;;44.20;;
63379;SDS011;53160;55.014;73.156;2023-05-16T13:21:03;60.60;;;49.20;;
63379;SDS011;53160;55.014;73.156;2023-05-16T13:23:30;60.20;;;49.80;;
63379;SDS011;53160;55.014;73.156;2023-05-16T13:26:00;59.80;;;49.60;;
63379;SDS011;53160;55.014;73.156;2023-05-16T13:28:28;63.20;;;51.20;;
63379;SDS011;53160;55.014;73.156;2023-05-16T13:30:55;53.60;;;44.40;;
63379;SDS011;53160;55.014;73.156;2023-05-16T13:33:21;57.40;;;48.00;;
63379;SDS011;53160;55.014;73.156;2023-05-16T13:35:49;57.20;;;47.80;;
63379;SDS011;53160;55.014;73.156;2023-05-16T13:38:16;54.60;;;46.00;;
63379;SDS011;53160;55.014;73.156;2023-05-16T13:40:42;60.20;;;49.40;;
63379;SDS011;53160;55.014;73.156;2023-05-16T13:43:09;56.00;;;46.20;;
63379;SDS011;53160;55.014;73.156;2023-05-16T13:45:36;59.80;;;49.00;;
63379;SDS011;53160;55.014;73.156;2023-05-16T13:48:02;57.40;;;48.00;;
63379;SDS011;53160;55.014;73.156;2023-05-16T13:50:31;58.60;;;48.00;;
63379;SDS011;53160;55.014;73.156;2023-05-16T13:52:57;53.40;;;43.40;;
63379;SDS011;53160;55.014;73.156;2023-05-16T13:55:23;59.25;;;48.50;;
63379;SDS011;53160;55.014;73.156;2023-05-16T13:57:49;60.00;;;48.20;;
63379;SDS011;53160;55.014;73.156;2023-05-16T14:00:15;56.20;;;46.60;;
63379;SDS011;53160;55.014;73.156;2023-05-16T14:02:42;59.80;;;49.20;;
63379;SDS011;53160;55.014;73.156;2023-05-16T14:05:08;53.20;;;44.40;;
63379;SDS011;53160;55.014;73.156;2023-05-16T14:07:34;55.80;;;46.00;;
63379;SDS011;53160;55.014;73.156;2023-05-16T14:10:04;54.20;;;45.40;;
63379;SDS011;53160;55.014;73.156;2023-05-16T14:12:33;49.00;;;40.80;;
63379;SDS011;53160;55.014;73.156;2023-05-16T14:15:05;44.00;;;37.80;;
63379;SDS011;53160;55.014;73.156;2023-05-16T14:17:34;39.60;;;34.80;;
63379;SDS011;53160;55.014;73.156;2023-05-16T14:20:00;32.40;;;30.40;;
63379;SDS011;53160;55.014;73.156;2023-05-16T14:22:26;32.20;;;30.60;;
63379;SDS011;53160;55.014;73.156;2023-05-16T14:24:53;30.00;;;29.40;;
63379;SDS011;53160;55.014;73.156;2023-05-16T14:27:19;25.25;;;25.00;;
63379;SDS011;53160;55.014;73.156;2023-05-16T14:29:45;23.80;;;21.00;;
63379;SDS011;53160;55.014;73.156;2023-05-16T14:32:13;22.60;;;22.60;;
63379;SDS011;53160;55.014;73.156;2023-05-16T14:34:39;19.00;;;18.80;;
63379;SDS011;53160;55.014;73.156;2023-05-16T14:37:06;17.00;;;16.60;;
63379;SDS011;53160;55.014;73.156;2023-05-16T14:39:34;16.00;;;15.60;;
63379;SDS011;53160;55.014;73.156;2023-05-16T14:42:00;15.40;;;14.20;;
63379;SDS011;53160;55.014;73.156;2023-05-16T14:44:26;13.60;;;13.60;;
63379;SDS011;53160;55.014;73.156;2023-05-16T14:46:52;13.20;;;13.00;;
63379;SDS011;53160;55.014;73.156;2023-05-16T14:49:18;13.20;;;11.80;;
63379;SDS011;53160;55.014;73.156;2023-05-16T14:51:44;13.00;;;12.20;;
63379;SDS011;53160;55.014;73.156;2023-05-16T14:54:15;11.50;;;11.00;;
63379;SDS011;53160;55.014;73.156;2023-05-16T14:56:41;7.60;;;6.80;;
63379;SDS011;53160;55.014;73.156;2023-05-16T14:59:08;12.50;;;12.50;;
63379;SDS011;53160;55.014;73.156;2023-05-16T15:01:34;17.50;;;16.50;;
63379;SDS011;53160;55.014;73.156;2023-05-16T15:04:00;13.80;;;12.80;;
63379;SDS011;53160;55.014;73.156;2023-05-16T15:06:26;14.00;;;13.80;;
63379;SDS011;53160;55.014;73.156;2023-05-16T15:08:52;14.00;;;12.60;;
63379;SDS011;53160;55.014;73.156;2023-05-16T15:11:19;13.60;;;13.20;;
63379;SDS011;53160;55.014;73.156;2023-05-16T15:13:46;15.60;;;14.00;;
63379;SDS011;53160;55.014;73.156;2023-05-16T15:16:13;22.40;;;19.80;;
63379;SDS011;53160;55.014;73.156;2023-05-16T15:18:44;16.20;;;14.00;;
63379;SDS011;53160;55.014;73.156;2023-05-16T15:21:10;13.40;;;12.40;;
63379;SDS011;53160;55.014;73.156;2023-05-16T15:23:36;13.40;;;12.20;;
63379;SDS011;53160;55.014;73.156;2023-05-16T15:26:02;14.20;;;14.00;;
63379;SDS011;53160;55.014;73.156;2023-05-16T15:28:28;12.60;;;12.60;;
63379;SDS011;53160;55.014;73.156;2023-05-16T15:30:55;21.20;;;19.40;;
63379;SDS011;53160;55.014;73.156;2023-05-16T15:33:21;17.40;;;16.00;;
63379;SDS011;53160;55.014;73.156;2023-05-16T15:35:47;20.20;;;18.60;;